Sect El Tendal, Puerto Rico
Current Conditions -  °F | °C
As of 8:50 PM on Monday 22 Dec 2014 (Local Time) from TJPS Reporting Station
Clear Clear  
Wind Chill: 75°   Ceiling: Unl
Heat Index: 75°   Visibility: 10mi
Dew Point: 70°   Wind: 0mph
Humidity: 83%   Direction: NA
Pressure: 29.97"   Gusts: NA
Location:  18.0306°N, 66.8507°W
Report Text: TJPS 230050Z 00000KT 10SM SKC 24/21 A2997
Loading
Personal Weather Stations






























Interactive Weather Map New forecast layout! Learn more

10-Day Weather Forecast

Advertisements
Track Severe Weather on mobile